sensor_id;sensor_type;location;lat;lon;timestamp;P1;durP1;ratioP1;P2;durP2;ratioP2
19036;SDS011;9651;49.138;8.900;2024-01-30T00:03:40;15.37;;;9.13;;
19036;SDS011;9651;49.138;8.900;2024-01-30T00:07:42;14.87;;;8.63;;
19036;SDS011;9651;49.138;8.900;2024-01-30T00:11:44;16.77;;;10.00;;
19036;SDS011;9651;49.138;8.900;2024-01-30T00:15:48;14.23;;;8.97;;
19036;SDS011;9651;49.138;8.900;2024-01-30T00:19:50;14.13;;;9.30;;
19036;SDS011;9651;49.138;8.900;2024-01-30T00:23:52;16.70;;;9.43;;
19036;SDS011;9651;49.138;8.900;2024-01-30T00:27:54;14.67;;;8.83;;
19036;SDS011;9651;49.138;8.900;2024-01-30T00:31:57;16.93;;;9.63;;
19036;SDS011;9651;49.138;8.900;2024-01-30T00:35:59;16.37;;;9.63;;
19036;SDS011;9651;49.138;8.900;2024-01-30T00:40:01;18.27;;;9.00;;
19036;SDS011;9651;49.138;8.900;2024-01-30T00:44:04;13.67;;;8.70;;
19036;SDS011;9651;49.138;8.900;2024-01-30T00:48:07;16.13;;;9.23;;
19036;SDS011;9651;49.138;8.900;2024-01-30T00:52:09;13.77;;;9.27;;
19036;SDS011;9651;49.138;8.900;2024-01-30T00:56:11;13.77;;;8.93;;
19036;SDS011;9651;49.138;8.900;2024-01-30T01:00:14;13.83;;;9.27;;
19036;SDS011;9651;49.138;8.900;2024-01-30T01:04:18;15.50;;;9.20;;
19036;SDS011;9651;49.138;8.900;2024-01-30T01:08:21;14.83;;;9.07;;
19036;SDS011;9651;49.138;8.900;2024-01-30T01:12:23;12.93;;;8.73;;
19036;SDS011;9651;49.138;8.900;2024-01-30T01:16:25;13.77;;;8.40;;
19036;SDS011;9651;49.138;8.900;2024-01-30T01:20:28;17.00;;;9.53;;
19036;SDS011;9651;49.138;8.900;2024-01-30T01:24:30;12.70;;;9.17;;
19036;SDS011;9651;49.138;8.900;2024-01-30T01:28:32;13.63;;;8.43;;
19036;SDS011;9651;49.138;8.900;2024-01-30T01:32:34;15.17;;;8.60;;
19036;SDS011;9651;49.138;8.900;2024-01-30T01:36:38;16.57;;;9.00;;
19036;SDS011;9651;49.138;8.900;2024-01-30T01:40:40;17.87;;;9.43;;
19036;SDS011;9651;49.138;8.900;2024-01-30T01:44:44;13.23;;;7.97;;
19036;SDS011;9651;49.138;8.900;2024-01-30T01:48:46;16.40;;;8.50;;
19036;SDS011;9651;49.138;8.900;2024-01-30T01:52:49;12.97;;;8.03;;
19036;SDS011;9651;49.138;8.900;2024-01-30T01:56:52;14.43;;;8.67;;
19036;SDS011;9651;49.138;8.900;2024-01-30T02:00:54;12.37;;;8.33;;
19036;SDS011;9651;49.138;8.900;2024-01-30T02:04:57;12.90;;;8.13;;
19036;SDS011;9651;49.138;8.900;2024-01-30T02:09:01;15.57;;;9.47;;
19036;SDS011;9651;49.138;8.900;2024-01-30T02:13:04;15.40;;;8.10;;
19036;SDS011;9651;49.138;8.900;2024-01-30T02:17:06;10.63;;;7.40;;
19036;SDS011;9651;49.138;8.900;2024-01-30T02:21:09;14.07;;;8.07;;
19036;SDS011;9651;49.138;8.900;2024-01-30T02:25:11;13.63;;;8.43;;
19036;SDS011;9651;49.138;8.900;2024-01-30T02:29:13;13.03;;;8.23;;
19036;SDS011;9651;49.138;8.900;2024-01-30T02:33:15;13.47;;;9.00;;
19036;SDS011;9651;49.138;8.900;2024-01-30T02:37:18;14.33;;;8.47;;
19036;SDS011;9651;49.138;8.900;2024-01-30T02:41:20;12.87;;;8.50;;
19036;SDS011;9651;49.138;8.900;2024-01-30T02:45:22;16.13;;;9.30;;
19036;SDS011;9651;49.138;8.900;2024-01-30T02:49:24;12.83;;;8.67;;
19036;SDS011;9651;49.138;8.900;2024-01-30T02:53:27;16.33;;;9.50;;
19036;SDS011;9651;49.138;8.900;2024-01-30T02:57:29;15.27;;;9.07;;
19036;SDS011;9651;49.138;8.900;2024-01-30T03:01:31;13.10;;;8.10;;
19036;SDS011;9651;49.138;8.900;2024-01-30T03:05:33;13.80;;;8.17;;
19036;SDS011;9651;49.138;8.900;2024-01-30T03:09:36;14.90;;;8.33;;
19036;SDS011;9651;49.138;8.900;2024-01-30T03:13:38;13.23;;;8.10;;
19036;SDS011;9651;49.138;8.900;2024-01-30T03:17:40;13.43;;;8.17;;
19036;SDS011;9651;49.138;8.900;2024-01-30T03:21:42;15.57;;;8.90;;
19036;SDS011;9651;49.138;8.900;2024-01-30T03:25:45;15.33;;;8.93;;
19036;SDS011;9651;49.138;8.900;2024-01-30T03:29:47;14.50;;;8.80;;
19036;SDS011;9651;49.138;8.900;2024-01-30T03:33:49;14.07;;;8.50;;
19036;SDS011;9651;49.138;8.900;2024-01-30T03:37:51;14.03;;;8.33;;
19036;SDS011;9651;49.138;8.900;2024-01-30T03:41:54;14.13;;;8.43;;
19036;SDS011;9651;49.138;8.900;2024-01-30T03:45:56;18.97;;;9.03;;
19036;SDS011;9651;49.138;8.900;2024-01-30T03:49:58;13.53;;;8.03;;
19036;SDS011;9651;49.138;8.900;2024-01-30T03:54:00;15.83;;;8.73;;
19036;SDS011;9651;49.138;8.900;2024-01-30T03:58:03;14.37;;;8.57;;
19036;SDS011;9651;49.138;8.900;2024-01-30T04:02:05;16.70;;;8.97;;
19036;SDS011;9651;49.138;8.900;2024-01-30T04:06:07;13.40;;;8.23;;
19036;SDS011;9651;49.138;8.900;2024-01-30T04:10:09;14.13;;;8.90;;
19036;SDS011;9651;49.138;8.900;2024-01-30T04:14:12;14.23;;;8.90;;
19036;SDS011;9651;49.138;8.900;2024-01-30T04:18:14;14.67;;;9.13;;
19036;SDS011;9651;49.138;8.900;2024-01-30T04:22:16;19.37;;;8.87;;
19036;SDS011;9651;49.138;8.900;2024-01-30T04:26:18;15.80;;;8.03;;
19036;SDS011;9651;49.138;8.900;2024-01-30T04:30:21;15.03;;;8.57;;
19036;SDS011;9651;49.138;8.900;2024-01-30T04:34:23;15.30;;;8.30;;
19036;SDS011;9651;49.138;8.900;2024-01-30T04:38:25;11.77;;;8.57;;
19036;SDS011;9651;49.138;8.900;2024-01-30T04:42:26;17.27;;;8.83;;
19036;SDS011;9651;49.138;8.900;2024-01-30T04:46:30;14.40;;;9.20;;
19036;SDS011;9651;49.138;8.900;2024-01-30T04:50:32;13.97;;;9.17;;
19036;SDS011;9651;49.138;8.900;2024-01-30T04:54:34;17.43;;;9.07;;
19036;SDS011;9651;49.138;8.900;2024-01-30T04:58:36;14.33;;;8.73;;
19036;SDS011;9651;49.138;8.900;2024-01-30T05:02:39;16.23;;;9.37;;
19036;SDS011;9651;49.138;8.900;2024-01-30T05:06:41;14.60;;;8.77;;
19036;SDS011;9651;49.138;8.900;2024-01-30T05:10:43;15.37;;;8.93;;
19036;SDS011;9651;49.138;8.900;2024-01-30T05:14:44;18.70;;;10.07;;
19036;SDS011;9651;49.138;8.900;2024-01-30T05:18:48;14.53;;;9.30;;
19036;SDS011;9651;49.138;8.900;2024-01-30T05:22:49;12.63;;;8.27;;
19036;SDS011;9651;49.138;8.900;2024-01-30T05:26:52;16.67;;;10.07;;
19036;SDS011;9651;49.138;8.900;2024-01-30T05:30:54;16.43;;;9.00;;
19036;SDS011;9651;49.138;8.900;2024-01-30T05:34:57;15.80;;;9.87;;
19036;SDS011;9651;49.138;8.900;2024-01-30T05:38:59;17.40;;;11.07;;
19036;SDS011;9651;49.138;8.900;2024-01-30T05:43:01;18.97;;;10.13;;
19036;SDS011;9651;49.138;8.900;2024-01-30T05:47:03;15.90;;;9.83;;
19036;SDS011;9651;49.138;8.900;2024-01-30T05:51:08;19.37;;;9.90;;
19036;SDS011;9651;49.138;8.900;2024-01-30T05:55:10;19.77;;;10.97;;
19036;SDS011;9651;49.138;8.900;2024-01-30T05:59:13;20.73;;;11.00;;
19036;SDS011;9651;49.138;8.900;2024-01-30T06:03:14;25.03;;;10.80;;
19036;SDS011;9651;49.138;8.900;2024-01-30T06:07:18;15.07;;;9.50;;
19036;SDS011;9651;49.138;8.900;2024-01-30T06:11:19;16.20;;;10.27;;
19036;SDS011;9651;49.138;8.900;2024-01-30T06:15:21;14.00;;;9.90;;
19036;SDS011;9651;49.138;8.900;2024-01-30T06:19:23;17.33;;;9.93;;
19036;SDS011;9651;49.138;8.900;2024-01-30T06:23:26;16.13;;;9.93;;
19036;SDS011;9651;49.138;8.900;2024-01-30T06:27:28;16.43;;;10.03;;
19036;SDS011;9651;49.138;8.900;2024-01-30T06:31:30;16.33;;;9.33;;
19036;SDS011;9651;49.138;8.900;2024-01-30T06:35:32;19.77;;;9.83;;
19036;SDS011;9651;49.138;8.900;2024-01-30T06:39:37;15.30;;;9.17;;
19036;SDS011;9651;49.138;8.900;2024-01-30T06:43:39;17.80;;;8.87;;
19036;SDS011;9651;49.138;8.900;2024-01-30T06:47:41;16.10;;;9.53;;
19036;SDS011;9651;49.138;8.900;2024-01-30T06:51:43;14.63;;;8.70;;
19036;SDS011;9651;49.138;8.900;2024-01-30T06:55:46;17.60;;;9.83;;
19036;SDS011;9651;49.138;8.900;2024-01-30T06:59:48;13.70;;;8.70;;
19036;SDS011;9651;49.138;8.900;2024-01-30T07:03:50;17.67;;;9.57;;
19036;SDS011;9651;49.138;8.900;2024-01-30T07:07:51;14.73;;;9.53;;
19036;SDS011;9651;49.138;8.900;2024-01-30T07:11:55;19.43;;;10.13;;
19036;SDS011;9651;49.138;8.900;2024-01-30T07:15:58;13.27;;;9.20;;
19036;SDS011;9651;49.138;8.900;2024-01-30T07:20:00;17.30;;;9.50;;
19036;SDS011;9651;49.138;8.900;2024-01-30T07:24:03;17.97;;;10.43;;
19036;SDS011;9651;49.138;8.900;2024-01-30T07:28:07;17.83;;;9.70;;
19036;SDS011;9651;49.138;8.900;2024-01-30T07:32:09;16.07;;;9.67;;
19036;SDS011;9651;49.138;8.900;2024-01-30T07:36:11;15.70;;;10.20;;
19036;SDS011;9651;49.138;8.900;2024-01-30T07:40:13;21.27;;;11.63;;
19036;SDS011;9651;49.138;8.900;2024-01-30T07:44:17;19.00;;;11.20;;
19036;SDS011;9651;49.138;8.900;2024-01-30T07:48:18;17.37;;;11.53;;
19036;SDS011;9651;49.138;8.900;2024-01-30T07:52:21;17.97;;;10.67;;
19036;SDS011;9651;49.138;8.900;2024-01-30T07:56:27;21.30;;;11.60;;
19036;SDS011;9651;49.138;8.900;2024-01-30T08:00:52;17.97;;;10.17;;
19036;SDS011;9651;49.138;8.900;2024-01-30T08:04:54;33.97;;;12.87;;
19036;SDS011;9651;49.138;8.900;2024-01-30T08:08:57;38.23;;;16.83;;
19036;SDS011;9651;49.138;8.900;2024-01-30T08:12:59;38.13;;;16.77;;
19036;SDS011;9651;49.138;8.900;2024-01-30T08:17:03;25.40;;;12.37;;
19036;SDS011;9651;49.138;8.900;2024-01-30T08:21:05;19.07;;;10.47;;
19036;SDS011;9651;49.138;8.900;2024-01-30T08:25:07;20.53;;;10.77;;
19036;SDS011;9651;49.138;8.900;2024-01-30T08:29:09;15.13;;;10.17;;
19036;SDS011;9651;49.138;8.900;2024-01-30T08:33:13;13.67;;;9.43;;
19036;SDS011;9651;49.138;8.900;2024-01-30T08:37:14;16.27;;;10.07;;
19036;SDS011;9651;49.138;8.900;2024-01-30T08:41:17;16.13;;;11.17;;
19036;SDS011;9651;49.138;8.900;2024-01-30T08:45:19;18.93;;;12.07;;
19036;SDS011;9651;49.138;8.900;2024-01-30T08:49:22;20.73;;;12.77;;
19036;SDS011;9651;49.138;8.900;2024-01-30T08:53:24;18.10;;;12.07;;
19036;SDS011;9651;49.138;8.900;2024-01-30T08:57:26;16.77;;;11.00;;
19036;SDS011;9651;49.138;8.900;2024-01-30T09:01:29;14.43;;;10.20;;
19036;SDS011;9651;49.138;8.900;2024-01-30T09:05:32;17.70;;;10.03;;
19036;SDS011;9651;49.138;8.900;2024-01-30T09:09:34;16.03;;;10.63;;
19036;SDS011;9651;49.138;8.900;2024-01-30T09:13:36;16.63;;;10.90;;
19036;SDS011;9651;49.138;8.900;2024-01-30T09:17:38;17.17;;;10.63;;
19036;SDS011;9651;49.138;8.900;2024-01-30T09:21:42;21.00;;;10.43;;
19036;SDS011;9651;49.138;8.900;2024-01-30T09:25:43;16.30;;;10.53;;
19036;SDS011;9651;49.138;8.900;2024-01-30T09:29:45;19.53;;;11.07;;
19036;SDS011;9651;49.138;8.900;2024-01-30T09:33:47;18.37;;;10.80;;
19036;SDS011;9651;49.138;8.900;2024-01-30T09:37:52;22.00;;;11.50;;
19036;SDS011;9651;49.138;8.900;2024-01-30T09:41:55;23.43;;;12.57;;
19036;SDS011;9651;49.138;8.900;2024-01-30T09:46:04;19.37;;;11.77;;
19036;SDS011;9651;49.138;8.900;2024-01-30T09:50:08;15.93;;;10.77;;
19036;SDS011;9651;49.138;8.900;2024-01-30T09:54:12;14.83;;;10.60;;
19036;SDS011;9651;49.138;8.900;2024-01-30T09:58:16;23.60;;;11.37;;
19036;SDS011;9651;49.138;8.900;2024-01-30T10:02:18;14.83;;;10.20;;
19036;SDS011;9651;49.138;8.900;2024-01-30T10:06:21;15.93;;;11.37;;
19036;SDS011;9651;49.138;8.900;2024-01-30T10:10:25;19.93;;;11.90;;
19036;SDS011;9651;49.138;8.900;2024-01-30T10:14:27;16.87;;;10.50;;
19036;SDS011;9651;49.138;8.900;2024-01-30T10:18:29;17.40;;;9.63;;
19036;SDS011;9651;49.138;8.900;2024-01-30T10:22:31;15.93;;;10.13;;
19036;SDS011;9651;49.138;8.900;2024-01-30T10:26:34;17.20;;;9.47;;
19036;SDS011;9651;49.138;8.900;2024-01-30T10:30:39;14.50;;;9.93;;
19036;SDS011;9651;49.138;8.900;2024-01-30T10:34:41;17.83;;;10.60;;
19036;SDS011;9651;49.138;8.900;2024-01-30T10:38:42;16.43;;;11.03;;
19036;SDS011;9651;49.138;8.900;2024-01-30T10:42:47;15.77;;;10.17;;
19036;SDS011;9651;49.138;8.900;2024-01-30T10:46:54;23.77;;;11.20;;
19036;SDS011;9651;49.138;8.900;2024-01-30T10:51:02;19.23;;;10.40;;
19036;SDS011;9651;49.138;8.900;2024-01-30T10:55:05;15.60;;;10.47;;
19036;SDS011;9651;49.138;8.900;2024-01-30T10:59:09;15.13;;;11.43;;
19036;SDS011;9651;49.138;8.900;2024-01-30T11:03:13;14.27;;;9.43;;
19036;SDS011;9651;49.138;8.900;2024-01-30T11:07:15;19.80;;;14.70;;
19036;SDS011;9651;49.138;8.900;2024-01-30T11:11:17;19.47;;;11.73;;
19036;SDS011;9651;49.138;8.900;2024-01-30T11:15:21;21.70;;;14.20;;
19036;SDS011;9651;49.138;8.900;2024-01-30T11:19:26;22.67;;;13.60;;
19036;SDS011;9651;49.138;8.900;2024-01-30T11:23:33;15.03;;;10.70;;
19036;SDS011;9651;49.138;8.900;2024-01-30T11:27:36;16.13;;;11.37;;
19036;SDS011;9651;49.138;8.900;2024-01-30T11:31:40;15.63;;;11.00;;
19036;SDS011;9651;49.138;8.900;2024-01-30T11:35:52;16.53;;;11.87;;
19036;SDS011;9651;49.138;8.900;2024-01-30T11:39:54;21.20;;;11.80;;
19036;SDS011;9651;49.138;8.900;2024-01-30T11:43:57;20.73;;;10.87;;
19036;SDS011;9651;49.138;8.900;2024-01-30T11:48:00;21.07;;;12.80;;
19036;SDS011;9651;49.138;8.900;2024-01-30T11:52:04;20.73;;;12.93;;
19036;SDS011;9651;49.138;8.900;2024-01-30T11:56:06;21.63;;;13.70;;
19036;SDS011;9651;49.138;8.900;2024-01-30T12:00:13;24.20;;;16.67;;
19036;SDS011;9651;49.138;8.900;2024-01-30T12:04:17;28.90;;;19.00;;
19036;SDS011;9651;49.138;8.900;2024-01-30T12:08:19;23.13;;;16.40;;
19036;SDS011;9651;49.138;8.900;2024-01-30T12:12:21;20.50;;;14.97;;
19036;SDS011;9651;49.138;8.900;2024-01-30T12:16:25;21.20;;;14.20;;
19036;SDS011;9651;49.138;8.900;2024-01-30T12:20:28;20.87;;;13.80;;
19036;SDS011;9651;49.138;8.900;2024-01-30T12:24:30;22.17;;;14.27;;
19036;SDS011;9651;49.138;8.900;2024-01-30T12:28:32;18.87;;;12.97;;
19036;SDS011;9651;49.138;8.900;2024-01-30T12:32:34;19.50;;;13.17;;
19036;SDS011;9651;49.138;8.900;2024-01-30T12:36:38;18.40;;;12.33;;
19036;SDS011;9651;49.138;8.900;2024-01-30T12:40:40;25.57;;;15.40;;
19036;SDS011;9651;49.138;8.900;2024-01-30T12:44:42;22.27;;;14.97;;
19036;SDS011;9651;49.138;8.900;2024-01-30T12:48:44;25.93;;;16.30;;
19036;SDS011;9651;49.138;8.900;2024-01-30T12:52:47;25.87;;;16.40;;
19036;SDS011;9651;49.138;8.900;2024-01-30T12:56:50;26.67;;;18.67;;
19036;SDS011;9651;49.138;8.900;2024-01-30T13:00:52;22.63;;;16.67;;
19036;SDS011;9651;49.138;8.900;2024-01-30T13:04:55;25.63;;;16.80;;
19036;SDS011;9651;49.138;8.900;2024-01-30T13:08:58;31.00;;;18.07;;
19036;SDS011;9651;49.138;8.900;2024-01-30T13:13:00;24.23;;;16.70;;
19036;SDS011;9651;49.138;8.900;2024-01-30T13:17:02;20.10;;;13.63;;
19036;SDS011;9651;49.138;8.900;2024-01-30T13:21:04;17.57;;;11.80;;
19036;SDS011;9651;49.138;8.900;2024-01-30T13:25:08;16.77;;;11.60;;
19036;SDS011;9651;49.138;8.900;2024-01-30T13:29:09;19.77;;;11.47;;
19036;SDS011;9651;49.138;8.900;2024-01-30T13:33:11;16.67;;;11.10;;
19036;SDS011;9651;49.138;8.900;2024-01-30T13:37:13;20.67;;;12.80;;
19036;SDS011;9651;49.138;8.900;2024-01-30T13:41:17;27.07;;;14.70;;
19036;SDS011;9651;49.138;8.900;2024-01-30T13:45:19;19.80;;;12.73;;
19036;SDS011;9651;49.138;8.900;2024-01-30T13:49:21;28.57;;;15.53;;
19036;SDS011;9651;49.138;8.900;2024-01-30T13:53:23;19.63;;;12.90;;
19036;SDS011;9651;49.138;8.900;2024-01-30T13:57:26;19.70;;;12.40;;
19036;SDS011;9651;49.138;8.900;2024-01-30T14:01:28;16.97;;;10.53;;
19036;SDS011;9651;49.138;8.900;2024-01-30T14:05:30;13.93;;;10.40;;
19036;SDS011;9651;49.138;8.900;2024-01-30T14:09:32;15.90;;;11.17;;
19036;SDS011;9651;49.138;8.900;2024-01-30T14:13:35;15.27;;;10.53;;
19036;SDS011;9651;49.138;8.900;2024-01-30T14:17:37;18.97;;;12.50;;
19036;SDS011;9651;49.138;8.900;2024-01-30T14:21:39;19.80;;;12.23;;
19036;SDS011;9651;49.138;8.900;2024-01-30T14:25:41;15.03;;;11.00;;
19036;SDS011;9651;49.138;8.900;2024-01-30T14:29:44;17.90;;;12.73;;
19036;SDS011;9651;49.138;8.900;2024-01-30T14:33:47;17.27;;;12.03;;
19036;SDS011;9651;49.138;8.900;2024-01-30T14:37:48;17.73;;;12.50;;
19036;SDS011;9651;49.138;8.900;2024-01-30T14:41:50;21.00;;;13.47;;
19036;SDS011;9651;49.138;8.900;2024-01-30T14:45:54;18.80;;;13.33;;
19036;SDS011;9651;49.138;8.900;2024-01-30T14:49:56;18.97;;;13.77;;
19036;SDS011;9651;49.138;8.900;2024-01-30T14:53:58;17.87;;;11.83;;
19036;SDS011;9651;49.138;8.900;2024-01-30T14:58:00;17.00;;;11.87;;
19036;SDS011;9651;49.138;8.900;2024-01-30T15:02:03;16.47;;;11.97;;
19036;SDS011;9651;49.138;8.900;2024-01-30T15:06:05;15.77;;;11.43;;
19036;SDS011;9651;49.138;8.900;2024-01-30T15:10:10;19.93;;;12.63;;
19036;SDS011;9651;49.138;8.900;2024-01-30T15:14:12;15.20;;;10.70;;
19036;SDS011;9651;49.138;8.900;2024-01-30T15:18:15;14.73;;;11.63;;
19036;SDS011;9651;49.138;8.900;2024-01-30T15:22:17;17.40;;;12.43;;
19036;SDS011;9651;49.138;8.900;2024-01-30T15:26:19;23.27;;;14.83;;
19036;SDS011;9651;49.138;8.900;2024-01-30T15:30:21;19.83;;;12.63;;
19036;SDS011;9651;49.138;8.900;2024-01-30T15:34:25;20.23;;;11.43;;
19036;SDS011;9651;49.138;8.900;2024-01-30T15:38:27;17.63;;;10.17;;
19036;SDS011;9651;49.138;8.900;2024-01-30T15:42:29;15.97;;;10.23;;
19036;SDS011;9651;49.138;8.900;2024-01-30T15:46:31;13.90;;;10.43;;
19036;SDS011;9651;49.138;8.900;2024-01-30T15:50:34;13.70;;;9.77;;
19036;SDS011;9651;49.138;8.900;2024-01-30T15:54:37;16.70;;;10.70;;
19036;SDS011;9651;49.138;8.900;2024-01-30T15:58:39;16.37;;;10.53;;
19036;SDS011;9651;49.138;8.900;2024-01-30T16:02:41;14.40;;;9.77;;
19036;SDS011;9651;49.138;8.900;2024-01-30T16:06:44;14.60;;;9.93;;
19036;SDS011;9651;49.138;8.900;2024-01-30T16:10:46;34.93;;;19.40;;
19036;SDS011;9651;49.138;8.900;2024-01-30T16:14:48;30.40;;;16.30;;
19036;SDS011;9651;49.138;8.900;2024-01-30T16:18:50;18.30;;;11.63;;
19036;SDS011;9651;49.138;8.900;2024-01-30T16:22:53;29.70;;;16.60;;
19036;SDS011;9651;49.138;8.900;2024-01-30T16:26:55;23.87;;;11.80;;
19036;SDS011;9651;49.138;8.900;2024-01-30T16:30:57;14.13;;;9.33;;
19036;SDS011;9651;49.138;8.900;2024-01-30T16:35:00;24.17;;;13.73;;
19036;SDS011;9651;49.138;8.900;2024-01-30T16:39:04;20.33;;;11.70;;
19036;SDS011;9651;49.138;8.900;2024-01-30T16:43:06;14.63;;;8.83;;
19036;SDS011;9651;49.138;8.900;2024-01-30T16:47:08;14.87;;;8.50;;
19036;SDS011;9651;49.138;8.900;2024-01-30T16:51:10;13.90;;;9.07;;
19036;SDS011;9651;49.138;8.900;2024-01-30T16:55:13;15.00;;;8.87;;
19036;SDS011;9651;49.138;8.900;2024-01-30T16:59:16;22.13;;;12.73;;
19036;SDS011;9651;49.138;8.900;2024-01-30T17:03:19;26.30;;;13.90;;
19036;SDS011;9651;49.138;8.900;2024-01-30T17:07:21;21.10;;;13.02;;
19036;SDS011;9651;49.138;8.900;2024-01-30T17:11:24;21.70;;;13.17;;
19036;SDS011;9651;49.138;8.900;2024-01-30T17:15:26;28.73;;;15.47;;
19036;SDS011;9651;49.138;8.900;2024-01-30T17:19:28;26.80;;;14.40;;
19036;SDS011;9651;49.138;8.900;2024-01-30T17:23:30;36.27;;;19.10;;
19036;SDS011;9651;49.138;8.900;2024-01-30T17:27:35;35.07;;;19.93;;
19036;SDS011;9651;49.138;8.900;2024-01-30T17:31:37;34.63;;;19.00;;
19036;SDS011;9651;49.138;8.900;2024-01-30T17:35:39;18.37;;;12.40;;
19036;SDS011;9651;49.138;8.900;2024-01-30T17:39:41;18.00;;;10.90;;
19036;SDS011;9651;49.138;8.900;2024-01-30T17:43:44;17.57;;;10.40;;
19036;SDS011;9651;49.138;8.900;2024-01-30T17:47:46;15.30;;;9.53;;
19036;SDS011;9651;49.138;8.900;2024-01-30T17:51:48;11.90;;;8.83;;
19036;SDS011;9651;49.138;8.900;2024-01-30T17:55:50;14.37;;;8.13;;
19036;SDS011;9651;49.138;8.900;2024-01-30T17:59:53;12.60;;;7.23;;
19036;SDS011;9651;49.138;8.900;2024-01-30T18:03:55;13.90;;;8.13;;
19036;SDS011;9651;49.138;8.900;2024-01-30T18:07:58;12.13;;;7.00;;
19036;SDS011;9651;49.138;8.900;2024-01-30T18:12:00;13.40;;;7.17;;
19036;SDS011;9651;49.138;8.900;2024-01-30T18:16:03;12.53;;;7.43;;
19036;SDS011;9651;49.138;8.900;2024-01-30T18:20:06;10.13;;;7.60;;
19036;SDS011;9651;49.138;8.900;2024-01-30T18:24:08;12.17;;;7.20;;
19036;SDS011;9651;49.138;8.900;2024-01-30T18:28:10;9.70;;;7.20;;
19036;SDS011;9651;49.138;8.900;2024-01-30T18:32:14;11.87;;;7.60;;
19036;SDS011;9651;49.138;8.900;2024-01-30T18:36:16;14.03;;;8.23;;
19036;SDS011;9651;49.138;8.900;2024-01-30T18:40:18;14.90;;;9.83;;
19036;SDS011;9651;49.138;8.900;2024-01-30T18:44:20;15.03;;;11.50;;
19036;SDS011;9651;49.138;8.900;2024-01-30T18:48:23;17.03;;;13.97;;
19036;SDS011;9651;49.138;8.900;2024-01-30T18:52:25;20.10;;;12.47;;
19036;SDS011;9651;49.138;8.900;2024-01-30T18:56:27;17.17;;;12.13;;
19036;SDS011;9651;49.138;8.900;2024-01-30T19:00:29;21.00;;;12.23;;
19036;SDS011;9651;49.138;8.900;2024-01-30T19:04:32;20.50;;;12.40;;
19036;SDS011;9651;49.138;8.900;2024-01-30T19:08:34;21.90;;;14.90;;
19036;SDS011;9651;49.138;8.900;2024-01-30T19:12:36;19.70;;;13.93;;
19036;SDS011;9651;49.138;8.900;2024-01-30T19:16:39;21.40;;;15.73;;
19036;SDS011;9651;49.138;8.900;2024-01-30T19:20:43;21.27;;;15.07;;
19036;SDS011;9651;49.138;8.900;2024-01-30T19:24:44;19.67;;;14.13;;
19036;SDS011;9651;49.138;8.900;2024-01-30T19:28:46;19.00;;;13.40;;
19036;SDS011;9651;49.138;8.900;2024-01-30T19:32:49;20.13;;;13.30;;
19036;SDS011;9651;49.138;8.900;2024-01-30T19:36:52;18.07;;;14.20;;
19036;SDS011;9651;49.138;8.900;2024-01-30T19:40:54;19.23;;;14.33;;
19036;SDS011;9651;49.138;8.900;2024-01-30T19:44:57;20.40;;;14.47;;
19036;SDS011;9651;49.138;8.900;2024-01-30T19:48:59;20.20;;;14.50;;
19036;SDS011;9651;49.138;8.900;2024-01-30T19:53:02;22.77;;;14.03;;
19036;SDS011;9651;49.138;8.900;2024-01-30T19:57:04;15.50;;;10.30;;
19036;SDS011;9651;49.138;8.900;2024-01-30T20:01:06;14.87;;;10.77;;
19036;SDS011;9651;49.138;8.900;2024-01-30T20:05:08;13.67;;;10.50;;
19036;SDS011;9651;49.138;8.900;2024-01-30T20:09:13;16.27;;;10.73;;
19036;SDS011;9651;49.138;8.900;2024-01-30T20:13:15;14.27;;;10.17;;
19036;SDS011;9651;49.138;8.900;2024-01-30T20:17:17;18.90;;;10.87;;
19036;SDS011;9651;49.138;8.900;2024-01-30T20:21:18;17.17;;;10.00;;
19036;SDS011;9651;49.138;8.900;2024-01-30T20:25:22;19.83;;;10.23;;
19036;SDS011;9651;49.138;8.900;2024-01-30T20:29:24;18.13;;;11.07;;
19036;SDS011;9651;49.138;8.900;2024-01-30T20:33:26;18.77;;;11.13;;
19036;SDS011;9651;49.138;8.900;2024-01-30T20:37:28;18.77;;;11.13;;
19036;SDS011;9651;49.138;8.900;2024-01-30T20:41:36;15.40;;;10.67;;
19036;SDS011;9651;49.138;8.900;2024-01-30T20:45:39;22.70;;;12.43;;
19036;SDS011;9651;49.138;8.900;2024-01-30T20:49:41;18.87;;;12.53;;
19036;SDS011;9651;49.138;8.900;2024-01-30T20:53:43;19.07;;;13.00;;
19036;SDS011;9651;49.138;8.900;2024-01-30T20:57:46;23.17;;;12.57;;
19036;SDS011;9651;49.138;8.900;2024-01-30T21:01:48;19.63;;;13.60;;
19036;SDS011;9651;49.138;8.900;2024-01-30T21:05:50;19.20;;;12.87;;
19036;SDS011;9651;49.138;8.900;2024-01-30T21:09:52;18.40;;;12.23;;
19036;SDS011;9651;49.138;8.900;2024-01-30T21:13:55;16.40;;;11.10;;
19036;SDS011;9651;49.138;8.900;2024-01-30T21:17:57;16.37;;;11.80;;
19036;SDS011;9651;49.138;8.900;2024-01-30T21:21:59;20.30;;;12.53;;
19036;SDS011;9651;49.138;8.900;2024-01-30T21:26:01;20.90;;;11.87;;
19036;SDS011;9651;49.138;8.900;2024-01-30T21:30:06;16.77;;;12.40;;
19036;SDS011;9651;49.138;8.900;2024-01-30T21:34:08;23.77;;;13.07;;
19036;SDS011;9651;49.138;8.900;2024-01-30T21:38:10;19.17;;;13.23;;
19036;SDS011;9651;49.138;8.900;2024-01-30T21:42:12;21.10;;;13.63;;
19036;SDS011;9651;49.138;8.900;2024-01-30T21:46:23;19.50;;;12.60;;
19036;SDS011;9651;49.138;8.900;2024-01-30T21:50:25;21.93;;;13.33;;
19036;SDS011;9651;49.138;8.900;2024-01-30T21:54:27;21.93;;;14.83;;
19036;SDS011;9651;49.138;8.900;2024-01-30T21:58:29;19.80;;;13.33;;
19036;SDS011;9651;49.138;8.900;2024-01-30T22:02:32;20.17;;;13.33;;
19036;SDS011;9651;49.138;8.900;2024-01-30T22:06:35;24.27;;;14.50;;
19036;SDS011;9651;49.138;8.900;2024-01-30T22:10:38;22.37;;;14.57;;
19036;SDS011;9651;49.138;8.900;2024-01-30T22:14:40;26.60;;;14.77;;
19036;SDS011;9651;49.138;8.900;2024-01-30T22:18:44;26.07;;;14.13;;
19036;SDS011;9651;49.138;8.900;2024-01-30T22:22:45;22.10;;;14.17;;
19036;SDS011;9651;49.138;8.900;2024-01-30T22:26:47;20.03;;;13.27;;
19036;SDS011;9651;49.138;8.900;2024-01-30T22:30:49;21.30;;;13.67;;
19036;SDS011;9651;49.138;8.900;2024-01-30T22:34:52;24.23;;;13.87;;
19036;SDS011;9651;49.138;8.900;2024-01-30T22:38:55;21.50;;;12.87;;
19036;SDS011;9651;49.138;8.900;2024-01-30T22:42:57;19.40;;;12.20;;
19036;SDS011;9651;49.138;8.900;2024-01-30T22:46:59;20.07;;;12.60;;
19036;SDS011;9651;49.138;8.900;2024-01-30T22:51:02;17.80;;;11.87;;
19036;SDS011;9651;49.138;8.900;2024-01-30T22:55:05;19.37;;;12.77;;
19036;SDS011;9651;49.138;8.900;2024-01-30T22:59:08;18.90;;;13.17;;
19036;SDS011;9651;49.138;8.900;2024-01-30T23:03:10;20.53;;;13.60;;
19036;SDS011;9651;49.138;8.900;2024-01-30T23:07:13;23.83;;;14.10;;
19036;SDS011;9651;49.138;8.900;2024-01-30T23:11:16;21.63;;;14.13;;
19036;SDS011;9651;49.138;8.900;2024-01-30T23:15:18;22.03;;;14.90;;
19036;SDS011;9651;49.138;8.900;2024-01-30T23:19:20;20.57;;;13.77;;
19036;SDS011;9651;49.138;8.900;2024-01-30T23:23:23;26.70;;;14.00;;
19036;SDS011;9651;49.138;8.900;2024-01-30T23:27:25;20.83;;;13.30;;
19036;SDS011;9651;49.138;8.900;2024-01-30T23:31:27;21.60;;;12.90;;
19036;SDS011;9651;49.138;8.900;2024-01-30T23:35:29;20.60;;;13.80;;
19036;SDS011;9651;49.138;8.900;2024-01-30T23:39:32;22.17;;;14.53;;
19036;SDS011;9651;49.138;8.900;2024-01-30T23:43:34;17.50;;;12.43;;
19036;SDS011;9651;49.138;8.900;2024-01-30T23:47:36;20.43;;;12.60;;
19036;SDS011;9651;49.138;8.900;2024-01-30T23:51:38;20.10;;;12.87;;
19036;SDS011;9651;49.138;8.900;2024-01-30T23:55:41;19.77;;;13.33;;
19036;SDS011;9651;49.138;8.900;2024-01-30T23:59:44;21.20;;;12.47;;
